Time;durP1;ratioP1;P1;durP2;ratioP2;P2;SDS_P1;SDS_P2;PMS_P1;PMS_P2;Temp;Humidity;BMP_temperature;BMP_pressure;BME280_temperature;BME280_humidity;BME280_pressure;Samples;Min_cycle;Max_cycle;Signal;HPM_P1;HPM_P2
2021/03/14 00:00:13;;;;;;;19.45;10.65;;;;;;;19.58;50.13;100030.50;2091780;28;19916;-48
2021/03/14 00:01:13;;;;;;;18.38;10.50;;;;;;;19.58;50.15;100025.91;2094055;28;20032;-51
2021/03/14 00:02:14;;;;;;;16.37;9.50;;;;;;;19.59;50.03;100021.28;2095699;28;20025;-48
2021/03/14 00:03:19;;;;;;;15.60;9.73;;;;;;;19.61;49.97;100017.38;2096849;28;20046;-48
2021/03/14 00:04:19;;;;;;;15.63;10.13;;;;;;;19.62;50.00;100002.69;2090860;28;20100;-49
2021/03/14 00:05:21;;;;;;;19.17;10.30;;;;;;;19.64;49.85;100006.13;2089585;28;20358;-48
2021/03/14 00:06:21;;;;;;;;;;;;;;;19.67;49.81;100008.59;2090522;28;20324;-49
2021/03/14 00:07:22;;;;;;;16.98;10.38;;;;;;;19.69;49.78;100012.00;2093138;28;19916;-49
2021/03/14 00:08:24;;;;;;;12.90;8.97;;;;;;;19.73;49.75;100008.97;2096619;28;20069;-49
2021/03/14 00:09:24;;;;;;;19.20;10.15;;;;;;;19.75;49.69;100012.44;2095101;28;20036;-48
2021/03/14 00:10:26;;;;;;;17.80;10.70;;;;;;;19.76;49.63;100012.25;2092111;28;20200;-48
2021/03/14 00:11:26;;;;;;;16.95;10.98;;;;;;;19.79;49.62;100008.34;2092330;28;20036;-48
2021/03/14 00:12:27;;;;;;;19.57;10.47;;;;;;;19.80;49.55;100007.34;2093004;28;20099;-49
2021/03/14 00:13:30;;;;;;;16.80;9.67;;;;;;;19.82;49.53;100005.28;2090635;28;20025;-49
2021/03/14 00:14:30;;;;;;;16.55;10.00;;;;;;;19.82;49.48;100005.28;2095873;28;20403;-49
2021/03/14 00:15:31;;;;;;;14.27;9.20;;;;;;;19.84;49.47;100009.63;2093676;28;20307;-49
2021/03/14 00:16:32;;;;;;;17.77;10.13;;;;;;;19.83;49.41;100007.03;2093205;28;20048;-49
2021/03/14 00:17:32;;;;;;;17.93;10.57;;;;;;;19.83;49.46;100002.41;2096958;28;20035;-52
2021/03/14 00:18:35;;;;;;;15.37;10.00;;;;;;;19.83;49.43;100001.56;2093129;28;20071;-49
2021/03/14 00:19:35;;;;;;;18.25;9.15;;;;;;;19.84;49.51;100003.25;2090120;28;20399;-49
2021/03/14 00:20:37;;;;;;;15.57;9.07;;;;;;;19.84;49.34;99992.31;2089500;28;20062;-48
2021/03/14 00:21:37;;;;;;;17.92;9.60;;;;;;;19.84;49.54;99997.78;2090249;28;20081;-48
2021/03/14 00:22:37;;;;;;;17.80;9.17;;;;;;;19.83;49.44;99994.19;2088991;28;20029;-51
2021/03/14 00:23:38;;;;;;;15.77;8.57;;;;;;;19.82;49.38;99988.88;2090073;28;20029;-48
2021/03/14 00:24:39;;;;;;;13.97;9.07;;;;;;;19.81;49.46;99987.16;2093526;28;20444;-49
2021/03/14 00:25:39;;;;;;;16.53;9.00;;;;;;;19.80;49.42;99986.31;2095544;28;20262;-49
2021/03/14 00:26:42;;;;;;;14.07;8.33;;;;;;;19.81;49.43;99990.75;2091606;28;20021;-51
2021/03/14 00:27:44;;;;;;;15.52;8.93;;;;;;;19.80;49.43;99990.94;2089850;28;20035;-49
2021/03/14 00:28:44;;;;;;;14.57;9.13;;;;;;;19.80;49.62;99980.00;2096223;28;20028;-49
2021/03/14 00:29:44;;;;;;;13.80;9.70;;;;;;;19.78;49.44;99979.28;2093180;28;20024;-49
2021/03/14 00:30:46;;;;;;;15.17;9.23;;;;;;;19.78;49.44;99977.41;2091299;28;20069;-49
2021/03/14 00:31:46;;;;;;;15.20;8.65;;;;;;;19.78;49.48;99987.50;2093309;28;20021;-49
2021/03/14 00:32:47;;;;;;;13.60;9.23;;;;;;;19.77;49.47;99991.22;2089451;28;20116;-48
2021/03/14 00:33:47;;;;;;;16.13;9.47;;;;;;;19.77;49.53;99988.50;2096623;28;20024;-50
2021/03/14 00:34:48;;;;;;;18.20;9.07;;;;;;;19.77;49.67;99999.44;2092910;28;20094;-49
2021/03/14 00:35:48;;;;;;;14.80;9.10;;;;;;;19.77;49.49;100007.63;2096396;28;20059;-48
2021/03/14 00:36:49;;;;;;;17.73;9.27;;;;;;;19.75;49.66;100005.06;2091014;28;20055;-49
2021/03/14 00:37:50;;;;;;;13.43;9.00;;;;;;;19.75;49.59;99998.75;2092897;28;20052;-51
2021/03/14 00:38:50;;;;;;;15.30;9.03;;;;;;;19.75;49.63;100013.28;2090917;28;20024;-49
2021/03/14 00:39:51;;;;;;;13.47;8.63;;;;;;;19.76;49.44;100005.94;2094364;28;20033;-49
2021/03/14 00:40:51;;;;;;;16.33;8.50;;;;;;;19.75;49.50;100004.22;2090902;28;20064;-49
2021/03/14 00:41:51;;;;;;;17.93;9.10;;;;;;;19.75;49.65;100004.22;2097237;28;20024;-49
2021/03/14 00:43:03;;;;;;;15.17;8.90;;;;;;;19.75;49.67;100009.69;2093893;28;20051;-49
2021/03/14 00:44:04;;;;;;;11.75;7.65;;;;;;;19.74;49.66;100013.44;2089587;28;20033;-50
2021/03/14 00:45:06;;;;;;;11.77;8.17;;;;;;;19.75;49.46;100020.63;2090057;28;20481;-50
2021/03/14 00:46:07;;;;;;;13.48;8.48;;;;;;;19.74;49.66;100016.16;2094722;28;20025;-51
2021/03/14 00:47:10;;;;;;;15.17;8.80;;;;;;;19.74;49.86;100018.91;2092560;28;20025;-50
2021/03/14 00:48:10;;;;;;;13.25;8.00;;;;;;;19.73;49.57;100020.78;2094089;28;20036;-49
2021/03/14 00:49:19;;;;;;;13.23;8.53;;;;;;;19.72;49.63;100021.81;2095504;28;20075;-49
2021/03/14 00:50:19;;;;;;;14.48;8.75;;;;;;;19.70;49.70;100024.69;2091873;28;20407;-49
2021/03/14 00:51:20;;;;;;;14.53;8.83;;;;;;;19.72;49.71;100038.22;2085996;28;20063;-50
2021/03/14 00:52:20;;;;;;;13.67;8.50;;;;;;;19.69;49.65;100033.88;2089604;28;20029;-49
2021/03/14 00:53:21;;;;;;;14.40;8.53;;;;;;;19.70;49.79;100041.09;2089229;28;20032;-49
2021/03/14 00:54:21;;;;;;;15.03;9.30;;;;;;;19.69;49.71;100038.50;2091897;28;20433;-50
2021/03/14 00:55:22;;;;;;;15.53;8.03;;;;;;;19.68;49.72;100032.19;2092792;28;20371;-52
2021/03/14 00:56:23;;;;;;;17.87;8.87;;;;;;;19.68;49.70;100031.31;2092886;28;20101;-49
2021/03/14 00:57:23;;;;;;;16.10;7.90;;;;;;;19.66;49.78;100036.91;2093055;28;20051;-49
2021/03/14 00:58:23;;;;;;;13.33;8.57;;;;;;;19.65;49.82;100032.47;2091100;28;20052;-48
2021/03/14 00:59:24;;;;;;;13.80;8.20;;;;;;;19.65;49.82;100037.94;2093474;28;20028;-49
2021/03/14 01:00:25;;;;;;;16.50;8.00;;;;;;;19.65;49.81;100032.47;2088652;28;20050;-49
2021/03/14 01:01:25;;;;;;;14.73;8.87;;;;;;;19.64;49.91;100030.72;2092636;28;20032;-49
2021/03/14 01:02:26;;;;;;;15.83;8.67;;;;;;;19.65;49.79;100037.94;2091834;28;20036;-49
2021/03/14 01:03:26;;;;;;;14.03;9.07;;;;;;;19.63;49.82;100029.03;2093344;28;20032;-49
2021/03/14 01:04:27;;;;;;;14.80;8.50;;;;;;;19.63;49.87;100037.22;2093026;28;20376;-49
2021/03/14 01:05:27;;;;;;;14.23;8.47;;;;;;;19.64;49.88;100040.81;2091330;28;20067;-49
2021/03/14 01:06:27;;;;;;;13.70;8.80;;;;;;;19.62;49.75;100035.50;2091173;28;20739;-49
2021/03/14 01:07:28;;;;;;;12.50;7.97;;;;;;;19.63;49.90;100039.09;2090464;28;20044;-48
2021/03/14 01:08:28;;;;;;;12.23;7.40;;;;;;;19.62;49.93;100037.38;2091322;28;20033;-49
2021/03/14 01:09:29;;;;;;;12.07;7.47;;;;;;;19.59;49.94;100035.81;2094213;28;20028;-49
2021/03/14 01:10:29;;;;;;;13.63;8.83;;;;;;;19.60;49.97;100032.06;2088845;28;20036;-51
2021/03/14 01:11:30;;;;;;;13.03;7.77;;;;;;;19.59;49.86;100038.53;2088482;28;20107;-49
2021/03/14 01:12:30;;;;;;;16.13;9.33;;;;;;;19.60;50.00;100039.38;2093045;28;20033;-49
2021/03/14 01:13:31;;;;;;;14.77;7.50;;;;;;;19.59;50.07;100046.75;2094960;28;20350;-49
2021/03/14 01:14:31;;;;;;;12.80;8.90;;;;;;;19.58;50.03;100041.44;2092045;28;20044;-49
2021/03/14 01:15:32;;;;;;;13.43;8.17;;;;;;;19.58;50.03;100039.56;2091857;28;20037;-49
2021/03/14 01:16:32;;;;;;;15.33;9.03;;;;;;;19.59;49.93;100035.81;2093573;28;20060;-49
2021/03/14 01:17:32;;;;;;;15.77;8.87;;;;;;;19.59;49.87;100037.69;2089955;28;20158;-49
2021/03/14 01:18:33;;;;;;;12.60;7.70;;;;;;;19.57;50.00;100035.09;2092669;28;20478;-50
2021/03/14 01:19:33;;;;;;;13.13;8.60;;;;;;;19.58;49.98;100036.84;2094310;28;20032;-50
2021/03/14 01:20:34;;;;;;;13.23;8.17;;;;;;;19.58;50.00;100025.03;2092462;28;20036;-49
2021/03/14 01:21:34;;;;;;;13.07;8.30;;;;;;;19.57;50.00;100037.81;2090541;28;20323;-49
2021/03/14 01:22:34;;;;;;;12.60;7.93;;;;;;;19.57;50.05;100032.34;2090261;28;20032;-49
2021/03/14 01:23:35;;;;;;;12.43;8.20;;;;;;;19.57;50.07;100032.34;2094595;28;20056;-48
2021/03/14 01:24:35;;;;;;;14.37;8.63;;;;;;;19.56;50.03;100027.91;2092142;28;20029;-49
2021/03/14 01:25:36;;;;;;;13.07;7.53;;;;;;;19.56;50.06;100027.06;2092575;28;20033;-49
2021/03/14 01:26:36;;;;;;;10.63;7.30;;;;;;;19.55;50.05;100023.47;2090122;28;20063;-49
2021/03/14 01:27:37;;;;;;;12.83;7.47;;;;;;;19.55;50.06;100019.84;2094707;28;20032;-49
2021/03/14 01:28:37;;;;;;;11.17;7.40;;;;;;;19.54;50.12;100016.28;2087811;28;20915;-50
2021/03/14 01:29:39;;;;;;;15.97;7.90;;;;;;;19.54;50.06;100024.47;2092872;28;20025;-49
2021/03/14 01:30:40;;;;;;;12.35;7.28;;;;;;;19.55;50.08;100033.53;2093087;28;20036;-51
2021/03/14 01:31:40;;;;;;;13.40;7.67;;;;;;;19.54;50.05;100029.94;2089171;28;20391;-49
2021/03/14 01:32:42;;;;;;;12.47;7.57;;;;;;;19.54;50.23;100031.81;2086876;28;20103;-49
2021/03/14 01:33:42;;;;;;;12.90;7.68;;;;;;;19.53;50.16;100033.69;2091418;28;20420;-49
2021/03/14 01:34:43;;;;;;;12.93;8.10;;;;;;;19.54;50.24;100034.56;2090076;28;20102;-52
2021/03/14 01:35:43;;;;;;;12.43;7.03;;;;;;;19.53;50.19;100038.31;2089514;28;20435;-49
2021/03/14 01:36:44;;;;;;;14.70;8.03;;;;;;;19.53;50.08;100036.44;2091197;28;20335;-50
2021/03/14 01:37:45;;;;;;;15.03;7.57;;;;;;;19.52;50.23;100031.97;2089290;28;20340;-49
2021/03/14 01:38:46;;;;;;;12.35;7.43;;;;;;;19.52;50.16;100029.22;2088926;28;20067;-50
2021/03/14 01:39:46;;;;;;;11.87;7.20;;;;;;;19.51;50.24;100030.25;2088953;28;20474;-49
2021/03/14 01:40:47;;;;;;;10.83;7.53;;;;;;;19.52;50.32;100025.66;2088516;28;20048;-49
2021/03/14 01:41:47;;;;;;;13.03;8.30;;;;;;;19.51;50.24;100030.25;2090202;28;20063;-49
2021/03/14 01:42:48;;;;;;;15.07;7.83;;;;;;;19.51;50.17;100024.78;2091070;28;20496;-51
2021/03/14 01:43:48;;;;;;;12.93;7.83;;;;;;;19.51;50.23;100026.66;2089818;28;20036;-49
2021/03/14 01:44:49;;;;;;;9.80;7.00;;;;;;;19.50;50.24;100020.34;2089087;28;20055;-49
2021/03/14 01:45:49;;;;;;;13.53;7.77;;;;;;;19.49;50.24;100027.66;2089437;28;20134;-49
2021/03/14 01:46:50;;;;;;;18.00;8.23;;;;;;;19.49;50.25;100024.06;2089669;28;20029;-49
2021/03/14 01:47:52;;;;;;;12.63;8.40;;;;;;;19.48;50.27;100025.97;2092938;28;20101;-49
2021/03/14 01:48:54;;;;;;;13.63;7.85;;;;;;;19.48;50.24;100025.09;2094227;28;20544;-51
2021/03/14 01:49:54;;;;;;;11.63;7.38;;;;;;;19.47;50.28;100023.38;2088831;28;20051;-49
2021/03/14 01:50:55;;;;;;;15.07;8.23;;;;;;;19.46;50.31;100010.72;2089773;28;20055;-49
2021/03/14 01:51:56;;;;;;;14.73;8.13;;;;;;;19.47;50.27;100012.44;2088243;28;20418;-48
2021/03/14 01:52:57;;;;;;;15.37;7.80;;;;;;;19.47;50.27;100009.69;2092202;28;20036;-49
2021/03/14 01:53:58;;;;;;;12.43;7.47;;;;;;;19.46;50.28;100005.25;2094791;28;20414;-50
2021/03/14 01:54:59;;;;;;;11.75;6.88;;;;;;;19.45;50.34;100003.53;2091776;28;20787;-49
2021/03/14 01:56:00;;;;;;;15.18;8.15;;;;;;;19.45;50.31;100000.78;2094873;28;20040;-50
2021/03/14 01:57:01;;;;;;;12.77;7.05;;;;;;;19.45;50.34;100009.88;2092485;28;20036;-50
2021/03/14 01:58:01;;;;;;;13.20;8.07;;;;;;;19.45;50.37;100001.66;2096287;28;20072;-51
2021/03/14 01:59:02;;;;;;;12.00;7.33;;;;;;;19.45;50.38;100006.25;2090268;28;20032;-49
2021/03/14 02:00:15;;;;;;;10.63;7.77;;;;;;;19.44;50.54;99996.34;2092440;28;20070;-49
2021/03/14 02:01:16;;;;;;;11.73;7.68;;;;;;;19.43;50.36;100006.44;2092677;28;20029;-49
2021/03/14 02:02:16;;;;;;;12.60;7.43;;;;;;;19.44;50.43;100007.28;2089982;28;20064;-52
2021/03/14 02:03:19;;;;;;;14.93;8.63;;;;;;;19.44;50.45;100012.75;2089443;28;20463;-48
2021/03/14 02:04:19;;;;;;;13.90;7.57;;;;;;;19.43;50.40;100011.03;2091550;28;20036;-51
2021/03/14 02:05:21;;;;;;;14.53;7.97;;;;;;;19.43;50.38;100011.03;2090075;28;20046;-50
2021/03/14 02:06:21;;;;;;;12.38;7.18;;;;;;;19.42;50.53;100007.44;2091544;28;20098;-49
2021/03/14 02:07:21;;;;;;;14.90;7.13;;;;;;;19.42;50.56;100009.31;2092468;28;20041;-48
2021/03/14 02:08:22;;;;;;;12.07;7.07;;;;;;;19.42;50.50;100009.31;2091524;28;20120;-51
2021/03/14 02:09:23;;;;;;;13.70;7.37;;;;;;;19.41;50.58;100005.72;2092156;28;20038;-49
2021/03/14 02:10:27;;;;;;;11.37;7.57;;;;;;;19.41;50.58;100013.91;2096637;28;20081;-48
2021/03/14 02:11:33;;;;;;;10.70;7.13;;;;;;;19.42;50.53;100003.84;2093445;28;20090;-50
2021/03/14 02:12:47;;;;;;;12.25;7.60;;;;;;;19.40;50.58;100005.88;2094997;28;20427;-49
2021/03/14 02:13:50;;;;;;;11.07;6.57;;;;;;;19.40;50.65;100011.31;2088459;28;20090;-49
2021/03/14 02:14:57;;;;;;;10.98;6.97;;;;;;;19.40;50.59;100011.31;2090263;28;20032;-49
2021/03/14 02:16:18;;;;;;;10.80;6.85;;;;;;;19.39;50.56;100004.16;2089029;28;20044;-49
2021/03/14 02:17:23;;;;;;;12.45;6.85;;;;;;;19.40;50.60;100005.88;2091621;28;20055;-50
2021/03/14 02:18:26;;;;;;;11.65;7.47;;;;;;;19.39;50.68;100004.16;2095013;28;20135;-49
2021/03/14 02:19:30;;;;;;;11.25;7.03;;;;;;;19.37;50.53;99993.38;2093321;28;20040;-49
2021/03/14 02:20:32;;;;;;;10.38;7.60;;;;;;;19.38;50.56;99991.50;2090304;28;20383;-51
2021/03/14 02:21:33;;;;;;;10.63;6.80;;;;;;;19.38;50.68;99999.72;2092646;28;20061;-49
2021/03/14 02:22:35;;;;;;;11.45;7.50;;;;;;;19.37;50.62;100000.72;2087054;28;20106;-50
2021/03/14 02:23:47;;;;;;;10.77;6.72;;;;;;;19.36;50.65;99994.38;2088781;28;20029;-49
2021/03/14 02:24:53;;;;;;;12.98;6.90;;;;;;;19.37;50.69;100000.72;2093829;28;20086;-49
2021/03/14 02:26:01;;;;;;;11.93;7.05;;;;;;;19.36;50.73;99994.38;2089631;28;20036;-49
2021/03/14 02:27:06;;;;;;;13.38;7.22;;;;;;;19.36;50.60;99996.28;2090689;28;20120;-49
2021/03/14 02:28:07;;;;;;;14.43;7.22;;;;;;;19.35;50.76;99997.25;2090008;28;20037;-48
2021/03/14 02:29:19;;;;;;;10.27;7.20;;;;;;;19.35;50.61;100002.72;2088636;28;20131;-48
2021/03/14 02:30:20;;;;;;;10.80;6.38;;;;;;;19.36;50.72;100004.47;2087592;28;20041;-49
2021/03/14 02:31:23;;;;;;;11.45;6.97;;;;;;;19.35;50.66;99995.38;2092325;28;20040;-49
2021/03/14 02:32:24;;;;;;;11.70;6.35;;;;;;;19.36;50.58;100004.47;2096467;28;20034;-49
2021/03/14 02:33:27;;;;;;;10.65;6.95;;;;;;;19.37;50.71;99993.38;2094065;28;20055;-50
2021/03/14 02:34:32;;;;;;;12.93;7.15;;;;;;;19.37;50.69;99992.50;2095919;28;20448;-50
2021/03/14 02:35:33;;;;;;;12.32;7.40;;;;;;;19.38;50.58;99991.50;2090695;28;20044;-49
2021/03/14 02:36:37;;;;;;;11.73;6.73;;;;;;;19.38;50.69;99988.78;2092371;28;20438;-52
2021/03/14 02:37:38;;;;;;;11.32;6.13;;;;;;;19.38;50.62;99991.50;2092930;28;20041;-49
2021/03/14 02:38:43;;;;;;;12.80;7.28;;;;;;;19.38;50.53;99991.50;2088674;28;20032;-49
2021/03/14 02:39:44;;;;;;;9.60;6.78;;;;;;;19.40;50.60;99989.47;2088275;28;20037;-49
2021/03/14 02:40:45;;;;;;;10.95;7.00;;;;;;;19.40;50.55;99993.09;2087688;28;20089;-49
2021/03/14 02:41:48;;;;;;;9.90;6.78;;;;;;;19.39;50.64;99994.06;2089036;28;20055;-51
2021/03/14 02:42:50;;;;;;;13.07;7.35;;;;;;;19.40;50.64;99989.47;2095771;28;20036;-49
2021/03/14 02:43:52;;;;;;;9.00;6.50;;;;;;;19.41;50.61;99991.19;2090424;28;20507;-49
2021/03/14 02:44:53;;;;;;;;;;;;;;;19.40;50.55;99987.63;2091297;28;20091;-50
2021/03/14 02:45:54;;;;;;;11.68;6.97;;;;;;;19.41;50.62;99977.53;2096143;28;20292;-48
2021/03/14 02:46:55;;;;;;;10.98;6.70;;;;;;;19.40;50.54;99973.06;2095085;28;20040;-48
2021/03/14 02:47:56;;;;;;;8.13;5.70;;;;;;;19.40;50.67;99973.06;2091198;28;20120;-48
2021/03/14 02:48:59;;;;;;;12.15;7.03;;;;;;;19.39;50.65;99965.88;2089524;28;20453;-50
2021/03/14 02:50:00;;;;;;;11.65;6.82;;;;;;;19.40;50.63;99984.00;2092172;28;20040;-49
2021/03/14 02:51:02;;;;;;;13.00;7.05;;;;;;;19.39;50.58;99988.59;2093599;28;20035;-49
2021/03/14 02:52:06;;;;;;;10.13;6.88;;;;;;;19.38;50.57;99992.38;2090944;28;20039;-51
2021/03/14 02:53:07;;;;;;;10.40;6.55;;;;;;;19.37;50.63;99989.78;2090829;28;20036;-49
2021/03/14 02:54:09;;;;;;;11.75;7.30;;;;;;;19.38;50.71;99988.78;2088550;28;20033;-49
2021/03/14 02:55:13;;;;;;;10.57;6.45;;;;;;;19.38;50.63;99986.06;2094877;28;20378;-50
2021/03/14 02:56:14;;;;;;;10.77;6.15;;;;;;;19.37;50.61;99989.78;2091636;28;20032;-51
2021/03/14 02:57:18;;;;;;;12.00;6.50;;;;;;;19.36;50.86;99988.06;2093429;28;20069;-49
2021/03/14 02:58:20;;;;;;;12.15;6.90;;;;;;;19.36;50.72;99990.81;2091234;28;20032;-49
2021/03/14 02:59:22;;;;;;;10.30;6.15;;;;;;;19.36;50.64;99990.81;2091066;28;20040;-48
2021/03/14 03:00:25;;;;;;;10.40;6.10;;;;;;;19.35;50.68;99975.41;2093836;28;20032;-50
2021/03/14 03:01:26;;;;;;;10.82;6.82;;;;;;;19.36;50.63;99974.41;2096521;28;20055;-49
2021/03/14 03:02:27;;;;;;;12.60;6.40;;;;;;;19.35;50.62;99986.34;2096274;28;20032;-48
2021/03/14 03:03:28;;;;;;;8.57;6.23;;;;;;;19.33;50.69;99978.31;2095392;28;20423;-52
2021/03/14 03:04:30;;;;;;;11.15;6.38;;;;;;;19.33;50.78;99988.34;2093518;28;20051;-50
2021/03/14 03:05:31;;;;;;;12.20;7.25;;;;;;;19.33;50.79;99980.16;2090214;28;20029;-49
2021/03/14 03:06:32;;;;;;;10.00;6.53;;;;;;;19.32;50.79;99975.72;2089588;28;20037;-49
2021/03/14 03:07:33;;;;;;;9.43;6.07;;;;;;;19.32;50.80;99986.66;2094188;28;20108;-49
2021/03/14 03:08:37;;;;;;;12.98;6.82;;;;;;;19.31;50.83;99979.47;2091642;28;20098;-52
2021/03/14 03:09:37;;;;;;;10.25;6.57;;;;;;;19.28;50.90;99970.56;2090304;28;20048;-50
2021/03/14 03:10:42;;;;;;;12.13;6.90;;;;;;;19.30;50.84;99972.28;2092290;28;20107;-50
2021/03/14 03:11:44;;;;;;;9.05;6.05;;;;;;;19.28;50.89;99970.56;2093510;28;20063;-52
2021/03/14 03:12:47;;;;;;;10.05;6.40;;;;;;;19.27;50.92;99963.38;2090239;28;20237;-49
2021/03/14 03:13:49;;;;;;;11.80;6.70;;;;;;;19.27;50.97;99966.09;2090475;28;20111;-50
2021/03/14 03:14:53;;;;;;;13.15;7.07;;;;;;;19.26;50.84;99964.41;2096482;28;20437;-48
2021/03/14 03:15:56;;;;;;;10.85;6.47;;;;;;;19.26;50.99;99961.66;2093246;28;20040;-49
2021/03/14 03:16:58;;;;;;;13.15;6.68;;;;;;;19.26;51.03;99950.72;2091867;28;20406;-50
2021/03/14 03:17:59;;;;;;;10.07;6.63;;;;;;;19.25;50.96;99959.91;2097318;28;20111;-49
2021/03/14 03:19:00;;;;;;;12.13;6.00;;;;;;;19.25;50.99;99962.66;2091244;28;20044;-49
2021/03/14 03:20:01;;;;;;;10.63;7.00;;;;;;;19.24;51.03;99969.16;2093136;28;20064;-49
2021/03/14 03:21:02;;;;;;;11.50;6.65;;;;;;;19.24;50.97;99966.41;2094448;28;20039;-49
2021/03/14 03:22:03;;;;;;;9.93;5.97;;;;;;;19.24;50.98;99968.28;2091415;28;20043;-49
2021/03/14 03:23:04;;;;;;;12.20;5.87;;;;;;;19.23;50.93;99961.09;2086655;28;20029;-49
2021/03/14 03:24:06;;;;;;;9.03;6.17;;;;;;;19.22;50.94;99962.97;2090869;28;20744;-49
2021/03/14 03:25:08;;;;;;;11.25;6.68;;;;;;;19.22;51.05;99959.38;2092878;28;20044;-50
2021/03/14 03:26:08;;;;;;;10.23;6.22;;;;;;;19.22;50.79;99962.13;2093239;28;20373;-49
2021/03/14 03:27:09;;;;;;;11.27;6.80;;;;;;;19.22;50.97;99954.78;2089723;28;20037;-50
2021/03/14 03:28:13;;;;;;;11.87;6.77;;;;;;;19.20;51.08;99962.25;2096042;28;20438;-50
2021/03/14 03:29:18;;;;;;;9.15;5.50;;;;;;;19.20;50.96;99951.34;2092769;28;20059;-51
2021/03/14 03:30:21;;;;;;;11.57;6.30;;;;;;;19.19;51.15;99946.88;2089761;28;20419;-49
2021/03/14 03:31:21;;;;;;;12.38;6.60;;;;;;;19.20;51.08;99950.47;2088895;28;20029;-49
2021/03/14 03:32:22;;;;;;;7.97;5.83;;;;;;;19.18;51.07;99947.91;2090119;28;20029;-51
2021/03/14 03:33:22;;;;;;;11.77;6.50;;;;;;;19.18;51.15;99942.44;2094400;28;20610;-49
2021/03/14 03:34:23;;;;;;;9.77;6.93;;;;;;;19.17;51.11;99954.38;2095200;28;20457;-50
2021/03/14 03:35:25;;;;;;;11.17;5.97;;;;;;;19.17;51.11;99943.44;2090628;28;20105;-49
2021/03/14 03:36:26;;;;;;;10.07;6.15;;;;;;;19.17;51.06;99950.78;2094869;28;20063;-51
2021/03/14 03:37:26;;;;;;;10.00;6.17;;;;;;;19.17;51.17;99937.97;2091710;28;20044;-49
2021/03/14 03:38:30;;;;;;;8.00;5.27;;;;;;;19.17;51.08;99946.19;2090080;28;20025;-49
2021/03/14 03:39:30;;;;;;;11.57;6.47;;;;;;;19.16;51.07;99930.81;2096043;28;20029;-49
2021/03/14 03:40:31;;;;;;;10.83;6.00;;;;;;;19.16;51.07;99936.28;2096273;28;20111;-49
2021/03/14 03:41:33;;;;;;;7.70;5.30;;;;;;;19.16;51.20;99938.16;2089979;28;20455;-49
2021/03/14 03:42:36;;;;;;;8.48;5.60;;;;;;;19.16;51.11;99944.47;2096235;28;20066;-50
2021/03/14 03:43:37;;;;;;;10.43;6.18;;;;;;;19.16;51.12;99940.88;2097879;28;20029;-48
2021/03/14 03:44:40;;;;;;;10.65;6.22;;;;;;;19.16;51.03;99949.94;2093309;28;20382;-50
2021/03/14 03:45:44;;;;;;;9.48;5.85;;;;;;;19.16;51.18;99944.47;2089855;28;20040;-51
2021/03/14 03:46:46;;;;;;;10.23;5.85;;;;;;;19.15;51.17;99941.88;2093967;28;20107;-50
2021/03/14 03:47:46;;;;;;;10.13;6.47;;;;;;;19.15;51.08;99936.41;2093922;28;20032;-50
2021/03/14 03:48:50;;;;;;;10.07;6.20;;;;;;;19.14;51.11;99941.03;2094092;28;20020;-49
2021/03/14 03:49:53;;;;;;;10.82;6.50;;;;;;;19.15;51.08;99937.28;2093874;28;20029;-50
2021/03/14 03:50:56;;;;;;;10.57;5.95;;;;;;;19.14;51.22;99941.03;2096748;28;20411;-49
2021/03/14 03:51:59;;;;;;;11.32;6.60;;;;;;;19.13;51.26;99939.28;2091760;28;20481;-49
2021/03/14 03:53:00;;;;;;;10.63;5.75;;;;;;;19.13;51.23;99944.75;2091885;28;20039;-49
2021/03/14 03:54:04;;;;;;;8.87;5.33;;;;;;;19.12;51.20;99945.78;2091219;28;20047;-49
2021/03/14 03:55:08;;;;;;;10.20;5.47;;;;;;;19.13;51.17;99944.75;2089331;28;20494;-49
2021/03/14 03:56:10;;;;;;;10.15;5.20;;;;;;;19.13;51.22;99944.75;2090713;28;20106;-51
2021/03/14 03:57:11;;;;;;;;;;;;;;;19.13;51.19;99950.22;2090782;28;20459;-51
2021/03/14 03:58:12;;;;;;;11.35;5.68;;;;;;;19.12;51.23;99947.66;2097776;28;19951;-48
2021/03/14 03:59:14;;;;;;;10.80;6.13;;;;;;;19.13;51.32;99954.84;2094220;28;20043;-49
2021/03/14 04:00:18;;;;;;;9.85;6.28;;;;;;;19.12;51.32;99953.13;2097733;28;20036;-51
2021/03/14 04:01:20;;;;;;;8.77;6.00;;;;;;;19.12;51.38;99953.13;2093169;28;20063;-49
2021/03/14 04:02:23;;;;;;;10.27;6.18;;;;;;;19.10;51.34;99950.53;2090217;28;20083;-50
2021/03/14 04:03:24;;;;;;;8.57;6.05;;;;;;;19.09;51.43;99948.84;2089004;28;20040;-49
2021/03/14 04:04:25;;;;;;;10.07;5.70;;;;;;;19.10;51.43;99945.06;2089621;28;20036;-51
2021/03/14 04:05:27;;;;;;;12.02;6.25;;;;;;;19.10;51.40;99947.81;2090043;28;20120;-49
2021/03/14 04:06:29;;;;;;;7.95;5.03;;;;;;;19.10;51.31;99939.59;2091342;28;20435;-51
2021/03/14 04:07:30;;;;;;;8.68;4.93;;;;;;;19.09;51.47;99937.91;2092090;28;20517;-49
2021/03/14 04:08:31;;;;;;;10.25;6.93;;;;;;;19.09;51.32;99943.38;2092458;28;20036;-52
2021/03/14 04:09:32;;;;;;;8.20;6.03;;;;;;;19.08;51.32;99947.09;2090067;28;20120;-50
2021/03/14 04:10:35;;;;;;;9.27;5.70;;;;;;;19.08;51.47;99958.03;2096319;28;20036;-53
2021/03/14 04:11:39;;;;;;;10.20;5.70;;;;;;;19.07;51.53;99959.06;2093533;28;20038;-50
2021/03/14 04:12:42;;;;;;;10.35;5.50;;;;;;;19.07;51.35;99956.31;2096895;28;20143;-48
2021/03/14 04:13:45;;;;;;;11.15;5.85;;;;;;;19.06;51.36;99957.34;2095686;28;20035;-50
2021/03/14 04:14:46;;;;;;;9.70;5.22;;;;;;;19.05;51.48;99963.81;2089198;28;20033;-52
2021/03/14 04:15:46;;;;;;;8.52;5.28;;;;;;;19.05;51.50;99969.25;2091900;28;20060;-52
2021/03/14 04:16:48;;;;;;;9.53;5.60;;;;;;;19.04;51.37;99957.50;2089207;28;20033;-48
2021/03/14 04:17:50;;;;;;;10.00;6.00;;;;;;;19.06;51.43;99960.06;2094801;28;20036;-49
2021/03/14 04:18:52;;;;;;;8.07;5.10;;;;;;;19.04;51.53;99967.56;2090439;28;20033;-49
2021/03/14 04:19:54;;;;;;;7.28;5.15;;;;;;;19.04;51.28;99967.56;2090871;28;20043;-49
2021/03/14 04:20:56;;;;;;;7.90;5.65;;;;;;;19.03;51.42;99968.56;2092006;28;20114;-49
2021/03/14 04:21:58;;;;;;;9.32;4.60;;;;;;;19.02;51.47;99973.16;2089584;28;20067;-48
2021/03/14 04:23:05;;;;;;;12.60;5.90;;;;;;;19.02;51.44;99985.97;2091713;28;20039;-49
2021/03/14 04:24:11;;;;;;;8.43;5.20;;;;;;;19.01;51.55;99979.66;2095403;28;20317;-50
2021/03/14 04:25:13;;;;;;;8.73;5.25;;;;;;;19.01;51.45;99985.13;2089415;28;20420;-50
2021/03/14 04:26:22;;;;;;;9.82;5.78;;;;;;;19.01;51.39;99981.50;2094898;28;20399;-48
2021/03/14 04:27:24;;;;;;;10.60;6.07;;;;;;;19.01;51.42;99981.50;2094376;28;20028;-49
2021/03/14 04:28:28;;;;;;;12.45;5.90;;;;;;;19.00;51.53;99988.00;2087972;28;22023;-50
2021/03/14 04:29:30;;;;;;;10.82;6.03;;;;;;;19.01;51.48;99989.69;2089990;28;20553;-50
2021/03/14 04:30:33;;;;;;;11.90;5.10;;;;;;;19.00;51.53;99979.78;2091063;28;20032;-49
2021/03/14 04:31:35;;;;;;;10.30;5.60;;;;;;;18.99;51.42;99987.13;2094710;28;20032;-50
2021/03/14 04:32:36;;;;;;;12.88;6.47;;;;;;;19.00;51.23;99988.84;2097567;28;20050;-49
2021/03/14 04:33:38;;;;;;;10.80;6.10;;;;;;;19.01;51.44;99992.44;2089296;28;20039;-49
2021/03/14 04:34:39;;;;;;;9.20;5.53;;;;;;;19.02;51.50;99997.75;2091633;28;20363;-50
2021/03/14 04:35:40;;;;;;;11.27;4.87;;;;;;;19.03;51.39;99998.59;2093840;28;20036;-49
2021/03/14 04:36:42;;;;;;;11.18;6.07;;;;;;;19.04;51.43;100003.06;2093062;28;20271;-48
2021/03/14 04:37:43;;;;;;;7.93;5.43;;;;;;;19.05;51.51;99999.31;2094096;28;20078;-50
2021/03/14 04:38:45;;;;;;;8.67;5.30;;;;;;;19.05;51.54;99996.59;2091875;28;20037;-50
2021/03/14 04:39:45;;;;;;;11.63;6.10;;;;;;;19.05;51.18;100002.03;2094439;28;20058;-49
2021/03/14 04:40:48;;;;;;;7.93;5.30;;;;;;;19.05;51.48;99999.31;2092256;28;20395;-49
2021/03/14 04:41:49;;;;;;;9.60;6.15;;;;;;;19.06;51.52;100003.78;2096897;28;20020;-50
2021/03/14 04:42:52;;;;;;;7.63;5.10;;;;;;;19.05;51.48;99997.44;2092915;28;20028;-49
2021/03/14 04:43:53;;;;;;;9.25;5.50;;;;;;;19.05;51.41;100002.03;2092819;28;20083;-51
2021/03/14 04:44:55;;;;;;;8.40;5.43;;;;;;;19.06;51.40;100009.25;2096283;28;20036;-50
2021/03/14 04:45:56;;;;;;;8.23;4.80;;;;;;;19.05;51.36;100011.09;2095413;28;20096;-49
2021/03/14 04:46:58;;;;;;;11.45;5.75;;;;;;;19.05;51.42;100007.50;2091292;28;20164;-52